Time;durP1;ratioP1;P1;durP2;ratioP2;P2;SDS_P1;SDS_P2;PMS_P1;PMS_P2;Temp;Humidity;BMP_temperature;BMP_pressure;BME280_temperature;BME280_humidity;BME280_pressure;Samples;Min_cycle;Max_cycle;Signal;HPM_P1;HPM_P2
2024/01/05 00:00:08;;;;;;;13.88;6.88;;;;;;;5.30;100.00;99056.59;4958060;28;20037;-96
2024/01/05 00:03:05;;;;;;;10.88;7.15;;;;;;;5.29;100.00;99057.59;4958301;28;20047;-96
2024/01/05 00:05:36;;;;;;;9.98;5.93;;;;;;;5.28;100.00;99055.94;4959499;28;20042;-96
2024/01/05 00:08:08;;;;;;;8.10;5.00;;;;;;;5.29;100.00;99064.59;4960934;28;20047;-96
2024/01/05 00:11:16;;;;;;;11.68;6.18;;;;;;;5.38;100.00;99069.00;4957564;28;20558;-95
2024/01/05 00:17:05;;;;;;;11.75;7.13;;;;;;;5.34;100.00;99070.25;4983414;28;20096;-96
2024/01/05 00:20:02;;;;;;;18.15;9.63;;;;;;;5.33;100.00;99066.81;4951569;28;20046;-96
2024/01/05 00:23:08;;;;;;;19.00;10.20;;;;;;;5.34;100.00;99071.06;4945364;28;20035;-96
2024/01/05 00:26:20;;;;;;;14.25;9.48;;;;;;;5.26;100.00;99060.50;4961735;28;20170;-96
2024/01/05 00:33:30;;;;;;;;;;;;;;;;;;;;;
2024/01/05 00:49:37;;;;;;;;;;;;;;;;;;;;;
2024/01/05 00:53:27;;;;;;;;;;;;;;;;;;;;;
2024/01/05 01:00:46;;;;;;;13.32;6.25;;;;;;;4.99;100.00;99104.00;4918035;28;20067;-96
2024/01/05 01:03:18;;;;;;;6.70;4.75;;;;;;;4.99;100.00;99104.00;4971194;28;20093;-96
2024/01/05 01:06:15;;;;;;;8.82;5.07;;;;;;;4.94;100.00;99099.19;4937263;28;20030;-96
2024/01/05 01:08:58;;;;;;;7.60;4.90;;;;;;;4.96;100.00;99099.03;4957719;28;20133;-96
2024/01/05 01:11:57;;;;;;;8.15;4.65;;;;;;;4.95;100.00;99100.81;4954849;28;20042;-96
2024/01/05 01:15:01;;;;;;;12.90;4.93;;;;;;;5.03;100.00;99113.22;4946363;28;20042;-96
2024/01/05 01:17:59;;;;;;;10.88;4.53;;;;;;;4.99;100.00;99117.09;4969661;28;20042;-96
2024/01/05 01:20:26;;;;;;;10.25;4.55;;;;;;;4.88;100.00;99105.00;4963666;28;20042;-96
2024/01/05 01:22:56;;;;;;;8.65;3.95;;;;;;;5.02;100.00;99122.03;4958379;28;20038;-95
2024/01/05 01:25:50;;;;;;;8.10;4.10;;;;;;;5.01;100.00;99114.31;4957839;28;20057;-96
2024/01/05 01:28:28;;;;;;;11.13;4.47;;;;;;;4.96;100.00;99120.00;4955894;28;20594;-96
2024/01/05 01:30:57;;;;;;;10.95;4.28;;;;;;;4.99;100.00;99114.47;4944264;28;20116;-96
2024/01/05 01:33:40;;;;;;;11.43;4.15;;;;;;;5.06;100.00;99122.59;4961250;28;20041;-95
2024/01/05 01:36:11;;;;;;;9.60;4.10;;;;;;;5.04;100.00;99120.13;4967326;28;20057;-95
2024/01/05 01:38:53;;;;;;;15.20;6.97;;;;;;;5.04;100.00;99121.91;4952983;28;20053;-95
2024/01/05 01:41:27;;;;;;;14.23;5.38;;;;;;;5.03;100.00;99123.69;4957008;28;20065;-96
2024/01/05 01:44:04;;;;;;;11.80;6.35;;;;;;;5.02;100.00;99129.06;4974944;28;20034;-96
2024/01/05 01:46:53;;;;;;;10.73;5.93;;;;;;;5.04;100.00;99140.22;4959805;28;20042;-95
2024/01/05 01:49:45;;;;;;;11.45;5.75;;;;;;;4.99;100.00;99138.03;4963508;28;20042;-95
2024/01/05 01:52:45;;;;;;;8.23;5.10;;;;;;;4.98;100.00;99144.25;4959850;28;20434;-96
2024/01/05 01:55:31;;;;;;;11.70;4.50;;;;;;;5.08;100.00;99142.44;4959136;28;20553;-95
2024/01/05 01:58:30;;;;;;;7.88;3.97;;;;;;;5.11;100.00;99137.88;4957116;28;20250;-96
2024/01/05 02:01:27;;;;;;;10.18;4.28;;;;;;;5.11;100.00;99133.47;4974326;28;20571;-96
2024/01/05 02:04:42;;;;;;;8.75;4.45;;;;;;;5.19;100.00;99146.69;4962775;28;20053;-95
2024/01/05 02:07:50;;;;;;;9.10;4.07;;;;;;;5.18;100.00;99150.28;4953546;28;20038;-96
2024/01/05 02:10:37;;;;;;;9.05;3.80;;;;;;;5.19;100.00;99149.28;4944158;28;20069;-95
2024/01/05 02:13:06;;;;;;;8.07;4.18;;;;;;;5.23;100.00;99157.72;4962117;28;20391;-95
2024/01/05 02:15:57;;;;;;;9.70;4.10;;;;;;;5.19;100.00;99148.50;4954105;28;20364;-96
2024/01/05 02:19:18;;;;;;;;;;;;;;;5.19;100.00;99154.53;4948694;28;20117;-96
2024/01/05 02:22:24;;;;;;;9.10;3.08;;;;;;;5.17;100.00;99147.78;4920331;29;19915;-96
2024/01/05 02:24:58;;;;;;;9.65;3.03;;;;;;;5.22;100.00;99156.88;4938487;28;20054;-96
2024/01/05 02:27:44;;;;;;;8.65;2.90;;;;;;;5.23;100.00;99149.84;4936061;28;20090;-96
2024/01/05 02:30:20;;;;;;;5.00;3.00;;;;;;;5.24;100.00;99158.53;4952807;28;20043;-96
2024/01/05 02:33:06;;;;;;;8.95;3.13;;;;;;;5.21;100.00;99160.47;4940115;28;20492;-96
2024/01/05 02:36:08;;;;;;;6.15;3.10;;;;;;;5.19;100.00;99161.59;4957991;28;20415;-96
2024/01/05 02:38:57;;;;;;;7.57;3.40;;;;;;;5.06;100.00;99170.56;4943445;28;20043;-96
2024/01/05 02:41:35;;;;;;;8.68;3.63;;;;;;;4.99;100.00;99173.88;4936947;28;20046;-96
2024/01/05 02:44:28;;;;;;;10.18;3.50;;;;;;;5.03;100.00;99178.69;4944401;28;20054;-96
2024/01/05 02:47:16;;;;;;;10.13;3.60;;;;;;;4.98;100.00;99173.06;4956263;28;20479;-96
2024/01/05 02:50:09;;;;;;;12.30;3.50;;;;;;;4.97;100.00;99176.63;4943730;28;20043;-95
2024/01/05 02:52:54;;;;;;;14.40;3.50;;;;;;;4.94;100.00;99180.34;4941785;28;20515;-96
2024/01/05 02:55:41;;;;;;;12.10;3.75;;;;;;;4.96;100.00;99180.22;4951224;28;20042;-96
2024/01/05 02:58:18;;;;;;;14.23;3.83;;;;;;;4.93;100.00;99181.34;4931161;28;20035;-96
2024/01/05 03:01:20;;;;;;;;;;;;;;;;;;;;;
2024/01/05 03:04:13;;;;;;;10.48;3.38;;;;;;;5.05;100.00;99186.41;4957119;28;20038;-96
2024/01/05 03:07:08;;;;;;;;;;;;;;;;;;;;;
2024/01/05 03:10:09;;;;;;;7.13;2.55;;;;;;;4.96;100.00;99195.94;4958311;28;20042;-96
2024/01/05 03:12:54;;;;;;;5.18;2.70;;;;;;;4.96;100.00;99181.06;4958787;28;20105;-96
2024/01/05 03:15:38;;;;;;;11.75;3.17;;;;;;;5.03;100.00;99197.00;4956564;28;20474;-96
2024/01/05 03:18:12;;;;;;;8.88;2.95;;;;;;;4.89;100.00;99185.19;4945835;28;20037;-96
2024/01/05 03:20:52;;;;;;;12.48;2.83;;;;;;;4.80;100.00;99186.84;4940001;29;20039;-96
2024/01/05 03:23:39;;;;;;;12.85;3.38;;;;;;;4.85;100.00;99199.53;4959550;28;20046;-96
2024/01/05 03:26:18;;;;;;;6.35;3.10;;;;;;;4.82;100.00;99186.72;4950706;28;20408;-96
2024/01/05 03:28:47;;;;;;;10.05;2.42;;;;;;;4.86;100.00;99193.31;4957561;28;20069;-96
2024/01/05 03:31:13;;;;;;;9.98;2.80;;;;;;;4.85;100.00;99204.75;4945179;28;20038;-96
2024/01/05 03:33:45;;;;;;;12.90;2.60;;;;;;;4.86;100.00;99210.84;4944252;28;20030;-95
2024/01/05 03:36:15;;;;;;;9.30;2.78;;;;;;;4.79;100.00;99203.53;4951759;28;20030;-96
2024/01/05 03:38:52;;;;;;;9.65;2.50;;;;;;;4.73;100.00;99196.19;4960606;28;20045;-96
2024/01/05 03:41:30;;;;;;;12.23;2.70;;;;;;;4.76;100.00;99203.78;4947102;28;20042;-96
2024/01/05 03:44:20;;;;;;;7.22;1.80;;;;;;;4.83;100.00;99202.28;4957513;28;20058;-96
2024/01/05 03:46:50;;;;;;;;;;;;;;;4.88;100.00;99203.66;4957438;28;20085;-96
2024/01/05 03:49:24;;;;;;;10.70;2.20;;;;;;;4.89;100.00;99213.19;4953204;28;19918;-95
2024/01/05 03:51:54;;;;;;;7.85;2.42;;;;;;;4.84;100.00;99221.44;4964088;28;20050;-96
2024/01/05 03:54:46;;;;;;;9.30;2.20;;;;;;;4.84;100.00;99224.06;4960544;28;20097;-95
2024/01/05 03:57:53;;;;;;;8.70;2.47;;;;;;;4.91;100.00;99227.78;4949876;28;20092;-95
2024/01/05 04:00:36;;;;;;;9.50;2.28;;;;;;;4.93;100.00;99240.72;4964814;28;20387;-96
2024/01/05 04:03:11;;;;;;;17.42;3.08;;;;;;;4.93;100.00;99238.09;4964630;28;20042;-96
2024/01/05 04:05:47;;;;;;;11.40;3.63;;;;;;;4.92;100.00;99221.56;4966453;28;20042;-95
2024/01/05 04:08:27;;;;;;;5.22;1.85;;;;;;;4.96;100.00;99216.88;4959187;28;20058;-96
2024/01/05 04:11:05;;;;;;;6.60;1.52;;;;;;;4.94;100.00;99221.41;4958603;28;20399;-96
2024/01/05 04:14:20;;;;;;;8.13;2.13;;;;;;;5.10;100.00;99236.59;4959882;28;20037;-96
2024/01/05 04:17:11;;;;;;;5.43;1.80;;;;;;;5.02;100.00;99225.97;4953559;28;20035;-96
2024/01/05 04:20:06;;;;;;;7.53;2.92;;;;;;;5.12;100.00;99236.44;4959878;28;20034;-95
2024/01/05 04:22:42;;;;;;;9.93;2.63;;;;;;;5.09;100.00;99232.31;4944015;28;20217;-96
2024/01/05 04:25:14;;;;;;;11.88;2.55;;;;;;;5.01;100.00;99227.78;4959023;28;20054;-96
2024/01/05 04:27:52;;;;;;;6.95;1.58;;;;;;;5.04;100.00;99229.28;4962317;28;20141;-96
2024/01/05 04:30:30;;;;;;;9.00;1.95;;;;;;;5.05;100.00;99238.78;4966258;28;20042;-96
2024/01/05 04:32:59;;;;;;;6.80;1.95;;;;;;;5.03;100.00;99230.25;4963063;28;20038;-96
2024/01/05 04:35:40;;;;;;;6.35;1.67;;;;;;;4.93;100.00;99215.38;4961480;28;20034;-95
2024/01/05 04:38:29;;;;;;;4.70;1.75;;;;;;;4.93;100.00;99232.88;4956378;28;20030;-96
2024/01/05 04:41:04;;;;;;;10.75;2.05;;;;;;;4.85;100.00;99233.56;4952851;28;20078;-94
2024/01/05 04:43:30;;;;;;;6.68;2.00;;;;;;;4.77;100.00;99246.50;4962354;28;20129;-95
2024/01/05 04:46:14;;;;;;;10.13;2.00;;;;;;;4.71;100.00;99245.25;4947576;28;20100;-96
2024/01/05 04:48:48;;;;;;;9.27;1.95;;;;;;;4.67;100.00;99249.94;4972716;28;20030;-96
2024/01/05 04:51:28;;;;;;;9.88;2.08;;;;;;;4.68;100.00;99254.19;4963072;28;20093;-95
2024/01/05 04:53:59;;;;;;;15.32;2.58;;;;;;;4.62;100.00;99257.34;4958188;28;20030;-92
2024/01/05 04:56:31;;;;;;;3.05;1.77;;;;;;;4.54;100.00;99250.19;4946899;28;20034;-96
2024/01/05 04:59:03;;;;;;;9.10;1.92;;;;;;;4.59;100.00;99250.63;4944968;28;20108;-95
2024/01/05 05:01:32;;;;;;;7.38;2.15;;;;;;;4.50;100.00;99256.66;4946037;28;20387;-95
2024/01/05 05:04:08;;;;;;;7.18;1.80;;;;;;;4.50;100.00;99258.44;4959365;28;20101;-95
2024/01/05 05:06:34;;;;;;;13.38;2.40;;;;;;;4.47;100.00;99259.53;4963640;28;20089;-95
2024/01/05 05:09:09;;;;;;;9.27;1.85;;;;;;;4.46;100.00;99257.88;4944080;28;20030;-96
2024/01/05 05:11:47;;;;;;;7.80;2.92;;;;;;;4.41;100.00;99260.91;4960307;28;20062;-95
2024/01/05 05:14:17;;;;;;;9.32;2.45;;;;;;;4.48;100.00;99276.88;4955420;28;20042;-96
2024/01/05 05:16:48;;;;;;;9.32;2.00;;;;;;;4.36;100.00;99272.72;4971803;28;20097;-95
2024/01/05 05:19:16;;;;;;;6.45;1.83;;;;;;;4.28;100.00;99268.16;4960484;28;20053;-96
2024/01/05 05:21:52;;;;;;;10.27;2.38;;;;;;;4.29;100.00;99272.44;4960242;28;20057;-96
2024/01/05 05:24:21;;;;;;;9.20;1.52;;;;;;;4.36;100.00;99280.56;4952413;28;20503;-96
2024/01/05 05:26:47;;;;;;;10.57;1.55;;;;;;;4.32;100.00;99278.22;4954066;28;20054;-96
2024/01/05 05:29:15;;;;;;;7.70;1.80;;;;;;;4.29;100.00;99270.66;4962765;28;20034;-96
2024/01/05 05:31:41;;;;;;;4.97;1.55;;;;;;;4.37;100.00;99284.84;4940495;28;20038;-95
2024/01/05 05:34:07;;;;;;;5.65;1.50;;;;;;;4.33;100.00;99290.34;4956164;28;20071;-96
2024/01/05 05:36:32;;;;;;;15.40;1.60;;;;;;;4.33;100.00;99292.97;4972401;28;20506;-96
2024/01/05 05:38:58;;;;;;;6.15;1.30;;;;;;;4.33;100.00;99292.97;4956852;28;20042;-95
2024/01/05 05:41:24;;;;;;;10.98;1.60;;;;;;;4.37;100.00;99295.31;4956541;28;20088;-96
2024/01/05 05:43:50;;;;;;;9.00;1.52;;;;;;;4.37;100.00;99285.69;4942077;28;20038;-95
2024/01/05 05:46:16;;;;;;;9.43;1.90;;;;;;;4.36;100.00;99301.50;4958387;28;20034;-95
2024/01/05 05:48:42;;;;;;;9.35;1.38;;;;;;;4.37;100.00;99303.16;4929660;28;20372;-95
2024/01/05 05:51:08;;;;;;;7.93;1.60;;;;;;;4.38;100.00;99305.63;4960367;28;20042;-95
2024/01/05 05:53:34;;;;;;;7.88;1.48;;;;;;;4.38;100.00;99299.59;4944066;28;20482;-94
2024/01/05 05:55:59;;;;;;;9.93;1.20;;;;;;;4.38;100.00;99310.06;4944796;28;20437;-96
2024/01/05 05:58:26;;;;;;;11.05;1.45;;;;;;;4.38;100.00;99317.91;4970309;28;20045;-95
2024/01/05 06:00:52;;;;;;;14.55;1.30;;;;;;;4.36;100.00;99311.97;4958272;28;20390;-95
2024/01/05 06:03:18;;;;;;;5.13;0.80;;;;;;;4.34;100.00;99314.72;4956309;28;20042;-95
2024/01/05 06:05:44;;;;;;;6.78;1.20;;;;;;;4.33;100.00;99313.06;4966740;28;20054;-95
2024/01/05 06:08:10;;;;;;;9.80;1.42;;;;;;;4.31;100.00;99330.69;4955643;28;20049;-95
2024/01/05 06:10:35;;;;;;;2.72;0.75;;;;;;;4.34;100.00;99327.81;4959621;28;20499;-94
2024/01/05 06:13:02;;;;;;;8.57;1.20;;;;;;;4.33;100.00;99332.19;4945734;28;20034;-94
2024/01/05 06:15:28;;;;;;;6.22;1.08;;;;;;;4.28;100.00;99323.94;4934180;28;20100;-95
2024/01/05 06:17:54;;;;;;;9.88;1.13;;;;;;;4.27;100.00;99335.34;4952363;28;20097;-95
2024/01/05 06:20:20;;;;;;;5.28;1.92;;;;;;;4.26;100.00;99338.94;4957742;28;20038;-94
2024/01/05 06:22:45;;;;;;;7.20;1.08;;;;;;;4.28;100.00;99351.88;4956581;28;20471;-96
2024/01/05 06:25:11;;;;;;;4.20;0.95;;;;;;;4.28;100.00;99360.56;4958748;28;20046;-95
2024/01/05 06:27:37;;;;;;;6.43;0.98;;;;;;;4.30;100.00;99363.03;4942817;28;20034;-94
2024/01/05 06:30:03;;;;;;;7.72;1.02;;;;;;;4.35;100.00;99358.22;4944644;28;20030;-95
2024/01/05 06:32:29;;;;;;;3.85;0.90;;;;;;;4.38;100.00;99359.78;4943783;28;20501;-95
2024/01/05 06:34:55;;;;;;;8.43;1.02;;;;;;;4.44;100.00;99356.63;4968026;28;20037;-94
2024/01/05 06:37:21;;;;;;;4.20;0.95;;;;;;;4.51;100.00;99368.22;4959332;28;20042;-95
2024/01/05 06:39:47;;;;;;;5.38;1.00;;;;;;;4.53;100.00;99362.84;4961206;28;20045;-95
2024/01/05 06:42:13;;;;;;;9.23;1.77;;;;;;;4.54;100.00;99373.19;4953665;28;20085;-95
2024/01/05 06:44:39;;;;;;;6.22;1.10;;;;;;;4.56;100.00;99371.28;4956138;28;20455;-94
2024/01/05 06:47:04;;;;;;;8.68;1.10;;;;;;;4.55;100.00;99367.00;4937950;28;20027;-95
2024/01/05 06:49:30;;;;;;;6.43;0.80;;;;;;;4.55;100.00;99367.00;4933169;28;20034;-94
2024/01/05 06:51:56;;;;;;;13.40;1.15;;;;;;;4.55;100.00;99376.63;4959722;28;20044;-95
2024/01/05 06:54:21;;;;;;;4.20;0.80;;;;;;;4.54;100.00;99375.81;4944948;28;20057;-94
2024/01/05 06:56:48;;;;;;;6.90;0.70;;;;;;;4.53;100.00;99379.38;4947127;28;20100;-95
2024/01/05 06:59:15;;;;;;;6.10;0.82;;;;;;;4.53;100.00;99384.63;4961720;28;20034;-95
2024/01/05 07:01:41;;;;;;;4.07;0.75;;;;;;;4.54;100.00;99393.31;4957273;28;20093;-95
2024/01/05 07:04:07;;;;;;;6.80;0.65;;;;;;;4.50;100.00;99390.13;4960005;28;20042;-95
2024/01/05 07:06:34;;;;;;;9.52;2.55;;;;;;;4.53;100.00;99391.63;4948622;28;20133;-94
2024/01/05 07:09:00;;;;;;;14.07;4.13;;;;;;;4.47;100.00;99395.63;4973767;28;20042;-94
2024/01/05 07:11:26;;;;;;;11.15;2.33;;;;;;;4.51;100.00;99401.44;4959049;28;20034;-95
2024/01/05 07:13:52;;;;;;;5.53;1.40;;;;;;;4.49;100.00;99398.91;4942955;28;20041;-95
2024/01/05 07:16:19;;;;;;;7.15;1.10;;;;;;;4.48;100.00;99399.88;4938669;28;20046;-95
2024/01/05 07:18:49;;;;;;;9.57;1.23;;;;;;;4.50;100.00;99408.44;4961252;28;20038;-95
2024/01/05 07:21:15;;;;;;;8.18;1.95;;;;;;;4.46;100.00;99412.25;4959617;28;20124;-94
2024/01/05 07:23:42;;;;;;;10.98;2.83;;;;;;;4.44;100.00;99411.56;4957958;28;20129;-95
2024/01/05 07:26:09;;;;;;;7.95;1.85;;;;;;;4.42;100.00;99411.72;4940913;28;20038;-95
2024/01/05 07:28:37;;;;;;;10.27;3.08;;;;;;;4.42;100.00;99422.19;4958594;28;20041;-95
2024/01/05 07:31:04;;;;;;;13.07;1.45;;;;;;;4.38;100.00;99412.91;4959212;28;20030;-95
2024/01/05 07:33:34;;;;;;;9.88;2.13;;;;;;;4.36;100.00;99420.06;4952951;28;20035;-95
2024/01/05 07:36:04;;;;;;;6.38;0.90;;;;;;;4.39;100.00;99432.91;4944016;28;20045;-96
2024/01/05 07:38:32;;;;;;;9.52;0.95;;;;;;;4.34;100.00;99424.59;4957451;28;20045;-95
2024/01/05 07:40:58;;;;;;;5.07;0.98;;;;;;;4.37;100.00;99440.03;4960347;28;20040;-96
2024/01/05 07:43:25;;;;;;;3.88;0.90;;;;;;;4.37;100.00;99447.88;4939208;28;20030;-96
2024/01/05 07:45:51;;;;;;;5.20;0.85;;;;;;;4.40;100.00;99457.25;4958140;28;20034;-95
2024/01/05 07:48:17;;;;;;;5.93;1.20;;;;;;;4.40;100.00;99462.50;4957647;28;20041;-95
2024/01/05 07:50:43;;;;;;;7.50;2.00;;;;;;;4.42;100.00;99465.81;4958148;28;20125;-96
2024/01/05 07:53:08;;;;;;;5.65;0.82;;;;;;;4.43;100.00;99467.47;4943287;28;20057;-95
2024/01/05 07:55:35;;;;;;;5.05;0.85;;;;;;;4.47;100.00;99479.34;4966945;28;20038;-95
2024/01/05 07:58:00;;;;;;;6.57;0.70;;;;;;;4.49;100.00;99487.06;4951274;28;20043;-95
2024/01/05 08:00:26;;;;;;;9.60;0.80;;;;;;;4.50;100.00;99481.72;4938776;28;20376;-95
2024/01/05 08:02:52;;;;;;;2.42;0.50;;;;;;;4.52;100.00;99489.44;4956237;28;20541;-96
2024/01/05 08:05:18;;;;;;;4.43;0.80;;;;;;;4.50;100.00;99491.34;4956241;28;20037;-96
2024/01/05 08:07:44;;;;;;;8.98;1.55;;;;;;;4.51;100.00;99482.56;4949617;28;20038;-95
2024/01/05 08:10:11;;;;;;;6.72;1.13;;;;;;;4.54;100.00;99495.38;4957830;28;20042;-95
2024/01/05 08:12:36;;;;;;;4.30;0.63;;;;;;;4.56;100.00;99498.69;4956734;28;20031;-94
2024/01/05 08:15:03;;;;;;;13.95;1.58;;;;;;;4.60;100.00;99500.09;4938713;28;20043;-95
2024/01/05 08:17:30;;;;;;;12.30;1.83;;;;;;;4.57;100.00;99511.63;4949300;28;20046;-94
2024/01/05 08:19:56;;;;;;;7.25;1.00;;;;;;;4.55;100.00;99508.34;4942804;28;20046;-95
2024/01/05 08:22:24;;;;;;;8.90;1.08;;;;;;;4.51;100.00;99514.75;4954041;28;20720;-96
2024/01/05 08:24:54;;;;;;;9.23;1.70;;;;;;;4.50;100.00;99513.13;4956341;28;20054;-96
2024/01/05 08:27:30;;;;;;;4.72;0.75;;;;;;;4.47;100.00;99522.03;4963686;28;20038;-96
2024/01/05 08:29:56;;;;;;;7.75;0.90;;;;;;;4.48;100.00;99525.50;4959511;28;20038;-95
2024/01/05 08:32:22;;;;;;;10.15;0.95;;;;;;;4.45;100.00;99520.50;4956856;28;20034;-95
2024/01/05 08:34:47;;;;;;;6.78;1.02;;;;;;;4.41;100.00;99516.50;4941728;28;20526;-96
2024/01/05 08:37:14;;;;;;;9.32;0.90;;;;;;;4.42;100.00;99529.47;4957851;28;20061;-96
2024/01/05 08:39:39;;;;;;;2.78;0.57;;;;;;;4.40;100.00;99527.91;4951457;28;20072;-96
2024/01/05 08:42:08;;;;;;;8.52;1.02;;;;;;;4.44;100.00;99531.94;4958196;28;20038;-96
2024/01/05 08:44:44;;;;;;;9.52;0.80;;;;;;;4.41;100.00;99545.28;4961416;28;20169;-96
2024/01/05 08:47:09;;;;;;;7.90;2.13;;;;;;;4.41;100.00;99543.47;4955863;28;20787;-95
2024/01/05 08:49:35;;;;;;;7.20;0.95;;;;;;;4.39;100.00;99550.63;4944628;28;20049;-95
2024/01/05 08:52:01;;;;;;;7.90;1.08;;;;;;;4.40;100.00;99544.44;4944750;28;20046;-96
2024/01/05 08:54:27;;;;;;;11.93;1.73;;;;;;;4.46;100.00;99543.09;4942119;28;20042;-95
2024/01/05 08:56:53;;;;;;;3.85;0.60;;;;;;;4.55;100.00;99546.75;4946395;28;20070;-96
2024/01/05 08:59:18;;;;;;;7.70;1.23;;;;;;;4.63;100.00;99557.41;4956817;28;20043;-96
2024/01/05 09:01:44;;;;;;;6.65;0.63;;;;;;;4.67;100.00;99544.88;4960213;28;20041;-95
2024/01/05 09:04:10;;;;;;;11.52;1.55;;;;;;;4.70;100.00;99561.16;4947550;28;20046;-96
2024/01/05 09:06:39;;;;;;;10.50;0.95;;;;;;;4.81;100.00;99567.31;4935231;28;20026;-96
2024/01/05 09:09:05;;;;;;;5.45;0.60;;;;;;;4.78;100.00;99568.38;4960412;28;20045;-96
2024/01/05 09:11:31;;;;;;;5.50;1.08;;;;;;;4.82;100.00;99580.28;4960906;28;20042;-95
2024/01/05 09:13:57;;;;;;;10.77;1.50;;;;;;;4.82;100.00;99577.66;4944312;28;20034;-95
2024/01/05 09:16:23;;;;;;;5.85;1.08;;;;;;;4.84;100.00;99583.56;4966866;28;20089;-95
2024/01/05 09:18:49;;;;;;;9.40;1.30;;;;;;;4.95;100.00;99580.06;4960971;28;20031;-94
2024/01/05 09:21:15;;;;;;;8.45;1.60;;;;;;;5.06;100.00;99589.66;4968364;28;20123;-95
2024/01/05 09:23:41;;;;;;;6.00;1.30;;;;;;;5.04;100.00;99586.31;4950886;28;21530;-95
2024/01/05 09:26:14;;;;;;;21.33;12.93;;;;;;;5.17;100.00;99598.38;4973780;28;20038;-96
2024/01/05 09:28:41;;;;;;;8.77;1.85;;;;;;;5.19;100.00;99599.91;4946711;28;20046;-96
2024/01/05 09:31:07;;;;;;;9.60;1.52;;;;;;;5.26;100.00;99602.84;4934374;28;20054;-95
2024/01/05 09:33:33;;;;;;;8.52;1.17;;;;;;;5.32;100.00;99597.06;4939778;29;20046;-96
2024/01/05 09:35:59;;;;;;;8.93;1.50;;;;;;;5.44;100.00;99604.84;4937956;28;20219;-95
2024/01/05 09:38:45;;;;;;;9.02;1.17;;;;;;;5.48;100.00;99603.59;4955448;28;20122;-96
2024/01/05 09:41:31;;;;;;;10.55;1.10;;;;;;;5.49;100.00;99617.56;4944799;28;20062;-95
2024/01/05 09:44:19;;;;;;;6.35;0.93;;;;;;;5.43;100.00;99618.91;4945712;28;20097;-94
2024/01/05 09:47:07;;;;;;;5.32;1.00;;;;;;;5.40;100.00;99621.81;4945016;28;20050;-95
2024/01/05 09:49:53;;;;;;;8.60;2.95;;;;;;;5.37;100.00;99620.25;4943189;28;20128;-95
2024/01/05 09:52:39;;;;;;;8.57;1.27;;;;;;;5.36;100.00;99621.22;4945154;28;20098;-96
2024/01/05 09:55:25;;;;;;;12.77;1.50;;;;;;;5.34;100.00;99631.84;4944510;28;20062;-96
2024/01/05 09:58:15;;;;;;;8.45;1.88;;;;;;;5.39;100.00;99641.09;4957273;28;20072;-96
2024/01/05 10:01:08;;;;;;;6.75;0.90;;;;;;;5.45;100.00;99651.88;4946825;28;20476;-96
2024/01/05 10:03:59;;;;;;;8.77;0.60;;;;;;;5.48;100.00;99656.03;4930143;28;20097;-95
2024/01/05 10:06:45;;;;;;;10.30;1.00;;;;;;;5.49;100.00;99662.09;4936223;28;20038;-96
2024/01/05 10:09:31;;;;;;;11.15;1.40;;;;;;;5.49;100.00;99656.88;4945551;28;20451;-96
2024/01/05 10:12:18;;;;;;;7.40;1.10;;;;;;;5.48;100.00;99653.41;4941822;28;20519;-95
2024/01/05 10:15:07;;;;;;;4.88;0.73;;;;;;;5.52;100.00;99661.84;4970648;28;20035;-95
2024/01/05 10:17:53;;;;;;;7.30;1.27;;;;;;;5.43;100.00;99655.63;4959431;28;20040;-96
2024/01/05 10:20:41;;;;;;;10.02;1.05;;;;;;;5.44;100.00;99670.38;4940267;28;20092;-96
2024/01/05 10:23:28;;;;;;;8.20;1.40;;;;;;;5.45;100.00;99678.09;4949977;28;20043;-96
2024/01/05 10:26:21;;;;;;;15.38;1.75;;;;;;;5.48;100.00;99684.06;4949581;28;20043;-96
2024/01/05 10:29:14;;;;;;;8.63;1.95;;;;;;;5.52;100.00;99673.19;4948573;28;20047;-96
2024/01/05 10:32:14;;;;;;;9.68;1.00;;;;;;;5.50;100.00;99680.31;4938698;28;20061;-96
2024/01/05 10:35:01;;;;;;;8.23;0.95;;;;;;;5.52;100.00;99694.16;4969163;28;20038;-95
2024/01/05 10:37:47;;;;;;;10.55;1.13;;;;;;;5.50;100.00;99689.97;4961336;28;20035;-96
2024/01/05 10:40:33;;;;;;;10.02;3.17;;;;;;;5.48;100.00;99695.34;4937391;28;20023;-96
2024/01/05 10:43:20;;;;;;;8.77;1.55;;;;;;;5.49;100.00;99701.44;4940379;28;20046;-96
2024/01/05 10:46:06;;;;;;;7.40;1.40;;;;;;;5.48;100.00;99703.22;4938119;28;20045;-96
2024/01/05 10:48:54;;;;;;;6.80;1.35;;;;;;;5.52;100.00;99698.53;4942284;28;20125;-96
2024/01/05 10:51:41;;;;;;;7.68;1.80;;;;;;;5.59;100.00;99715.41;4936727;28;20035;-96
2024/01/05 10:54:30;;;;;;;7.88;0.95;;;;;;;5.57;100.00;99712.09;4943802;28;20102;-96
2024/01/05 10:57:18;;;;;;;6.68;1.40;;;;;;;5.62;100.00;99716.97;4968037;28;20047;-95
2024/01/05 11:00:07;;;;;;;11.00;1.38;;;;;;;5.63;100.00;99718.59;4943751;28;20035;-96
2024/01/05 11:03:10;;;;;;;9.15;0.93;;;;;;;5.73;100.00;99719.50;4951631;28;20066;-96
2024/01/05 11:05:57;;;;;;;9.82;1.45;;;;;;;5.83;100.00;99719.53;4946142;28;20038;-96
2024/01/05 11:08:52;;;;;;;9.43;1.17;;;;;;;5.99;100.00;99719.03;4934493;28;20045;-96
2024/01/05 11:12:10;;;;;;;6.35;1.27;;;;;;;6.10;100.00;99719.94;4950232;28;20115;-96
2024/01/05 11:15:16;;;;;;;11.35;1.70;;;;;;;6.20;100.00;99718.16;4948042;28;20076;-96
2024/01/05 11:18:29;;;;;;;13.52;3.00;;;;;;;6.29;100.00;99727.88;4959597;28;20046;-96
2024/01/05 11:21:22;;;;;;;16.48;2.95;;;;;;;6.33;100.00;99726.66;4964041;28;20094;-96
2024/01/05 11:24:12;;;;;;;10.52;1.58;;;;;;;6.40;100.00;99721.66;4948357;28;20047;-96
2024/01/05 11:27:33;;;;;;;15.63;1.63;;;;;;;6.44;100.00;99715.19;4994596;23;20055;-95
2024/01/05 11:30:41;;;;;;;8.07;1.88;;;;;;;6.51;100.00;99725.16;4958988;28;20049;-95
2024/01/05 11:33:48;;;;;;;11.52;3.05;;;;;;;6.52;100.00;99713.69;4956747;23;20061;-96
2024/01/05 11:36:49;;;;;;;15.60;2.22;;;;;;;6.57;100.00;99729.88;4952262;28;20117;-96
2024/01/05 11:39:46;;;;;;;10.15;1.35;;;;;;;6.54;100.00;99723.09;4950821;28;20718;-96
2024/01/05 11:42:35;;;;;;;12.32;1.63;;;;;;;6.51;100.00;99726.00;4958676;28;20070;-96
2024/01/05 11:45:46;;;;;;;8.80;1.60;;;;;;;6.56;100.00;99722.97;4948645;28;20073;-95
2024/01/05 11:48:35;;;;;;;10.52;1.63;;;;;;;6.57;100.00;99724.63;4969561;28;20030;-96
2024/01/05 11:51:21;;;;;;;10.43;1.60;;;;;;;6.58;100.00;99723.63;4987624;28;20041;-94
2024/01/05 11:54:09;;;;;;;8.32;2.15;;;;;;;6.64;100.00;99733.59;4952213;28;20042;-96
2024/01/05 11:56:57;;;;;;;9.18;1.63;;;;;;;6.65;100.00;99726.56;4957624;28;20117;-95
2024/01/05 11:59:43;;;;;;;12.23;1.73;;;;;;;6.70;100.00;99737.50;4945203;28;20125;-95
2024/01/05 12:02:30;;;;;;;6.57;1.20;;;;;;;6.65;100.00;99734.44;4962306;28;20062;-95
2024/01/05 12:05:19;;;;;;;9.57;1.13;;;;;;;6.80;100.00;99738.31;4964549;28;20039;-93
2024/01/05 12:08:05;;;;;;;12.40;1.60;;;;;;;6.80;100.00;99737.50;4963188;28;20038;-94
2024/01/05 12:10:53;;;;;;;;;;;;;;;6.79;100.00;99744.53;4947356;28;20034;-95
2024/01/05 12:13:39;;;;;;;15.10;1.73;;;;;;;6.78;100.00;99745.53;4961891;28;19921;-96
2024/01/05 12:16:25;;;;;;;;;;;;;;;6.86;100.00;99747.47;4949558;28;20035;-95
2024/01/05 12:19:21;;;;;;;17.05;3.17;;;;;;;6.97;100.00;99746.50;4965601;28;19920;-94
2024/01/05 12:22:07;;;;;;;11.40;1.63;;;;;;;6.98;100.00;99750.78;4966323;28;20128;-95
2024/01/05 12:24:53;;;;;;;14.52;2.33;;;;;;;7.03;100.00;99758.22;4963843;28;20035;-95
2024/01/05 12:27:40;;;;;;;24.98;2.28;;;;;;;7.07;100.00;99749.94;4958679;28;20038;-96
2024/01/05 12:30:27;;;;;;;10.43;1.42;;;;;;;7.14;100.00;99755.47;4946201;28;20026;-95
2024/01/05 12:33:17;;;;;;;5.28;1.20;;;;;;;7.24;100.00;99759.88;4974522;28;20060;-95
2024/01/05 12:36:09;;;;;;;7.60;1.00;;;;;;;7.27;100.00;99759.63;4970920;28;20081;-93
2024/01/05 12:39:06;;;;;;;10.95;0.93;;;;;;;7.32;100.00;99768.75;4952109;28;20123;-96
2024/01/05 12:41:52;;;;;;;15.02;2.35;;;;;;;7.32;100.00;99758.25;4950275;28;20026;-96
2024/01/05 12:44:38;;;;;;;14.85;1.50;;;;;;;7.36;100.00;99764.03;4975490;28;20128;-96
2024/01/05 12:47:28;;;;;;;14.52;1.40;;;;;;;7.41;100.00;99767.06;4955638;28;20038;-95
2024/01/05 12:50:28;;;;;;;18.90;1.73;;;;;;;7.41;100.00;99750.47;4949411;28;20181;-95
2024/01/05 12:53:19;;;;;;;10.90;1.42;;;;;;;7.48;100.00;99766.50;4945356;28;20408;-94
2024/01/05 12:56:19;;;;;;;9.35;1.63;;;;;;;7.50;100.00;99757.50;4952306;28;20696;-93
2024/01/05 12:59:05;;;;;;;14.48;1.55;;;;;;;7.48;100.00;99762.09;4968146;28;20097;-95